sensor_id;sensor_type;location;lat;lon;timestamp;P1;durP1;ratioP1;P2;durP2;ratioP2
6414;SDS011;3240;48.790;9.210;2023-03-31T00:02:20;6.77;;;2.20;;
6414;SDS011;3240;48.790;9.210;2023-03-31T00:04:48;5.73;;;2.13;;
6414;SDS011;3240;48.790;9.210;2023-03-31T00:07:20;4.53;;;1.87;;
6414;SDS011;3240;48.790;9.210;2023-03-31T00:09:49;4.77;;;1.77;;
6414;SDS011;3240;48.790;9.210;2023-03-31T00:12:17;5.00;;;1.67;;
6414;SDS011;3240;48.790;9.210;2023-03-31T00:14:45;9.80;;;1.50;;
6414;SDS011;3240;48.790;9.210;2023-03-31T00:17:14;6.23;;;2.10;;
6414;SDS011;3240;48.790;9.210;2023-03-31T00:19:42;5.80;;;1.90;;
6414;SDS011;3240;48.790;9.210;2023-03-31T00:22:10;7.03;;;2.07;;
6414;SDS011;3240;48.790;9.210;2023-03-31T00:24:39;4.67;;;1.80;;
6414;SDS011;3240;48.790;9.210;2023-03-31T00:27:07;7.13;;;2.00;;
6414;SDS011;3240;48.790;9.210;2023-03-31T00:29:35;4.07;;;1.47;;
6414;SDS011;3240;48.790;9.210;2023-03-31T00:32:04;12.27;;;2.40;;
6414;SDS011;3240;48.790;9.210;2023-03-31T00:34:32;5.07;;;1.70;;
6414;SDS011;3240;48.790;9.210;2023-03-31T00:37:00;5.07;;;2.10;;
6414;SDS011;3240;48.790;9.210;2023-03-31T00:39:29;4.13;;;1.63;;
6414;SDS011;3240;48.790;9.210;2023-03-31T00:41:57;7.93;;;2.13;;
6414;SDS011;3240;48.790;9.210;2023-03-31T00:44:28;6.63;;;1.47;;
6414;SDS011;3240;48.790;9.210;2023-03-31T00:46:55;4.30;;;2.00;;
6414;SDS011;3240;48.790;9.210;2023-03-31T00:49:25;7.87;;;2.30;;
6414;SDS011;3240;48.790;9.210;2023-03-31T00:51:53;6.50;;;1.90;;
6414;SDS011;3240;48.790;9.210;2023-03-31T00:54:21;7.60;;;2.70;;
6414;SDS011;3240;48.790;9.210;2023-03-31T00:56:49;5.43;;;2.10;;
6414;SDS011;3240;48.790;9.210;2023-03-31T00:59:17;4.37;;;1.73;;
6414;SDS011;3240;48.790;9.210;2023-03-31T01:01:46;10.57;;;2.17;;
6414;SDS011;3240;48.790;9.210;2023-03-31T01:04:14;8.80;;;2.17;;
6414;SDS011;3240;48.790;9.210;2023-03-31T01:06:43;4.40;;;2.33;;
6414;SDS011;3240;48.790;9.210;2023-03-31T01:09:11;4.07;;;1.80;;
6414;SDS011;3240;48.790;9.210;2023-03-31T01:11:39;8.30;;;2.80;;
6414;SDS011;3240;48.790;9.210;2023-03-31T01:14:07;7.60;;;2.00;;
6414;SDS011;3240;48.790;9.210;2023-03-31T01:16:36;5.90;;;2.13;;
6414;SDS011;3240;48.790;9.210;2023-03-31T01:19:06;13.33;;;2.20;;
6414;SDS011;3240;48.790;9.210;2023-03-31T01:24:26;4.37;;;1.97;;
6414;SDS011;3240;48.790;9.210;2023-03-31T01:26:55;8.10;;;1.90;;
6414;SDS011;3240;48.790;9.210;2023-03-31T01:32:23;5.47;;;2.13;;
6414;SDS011;3240;48.790;9.210;2023-03-31T01:34:53;5.30;;;2.03;;
6414;SDS011;3240;48.790;9.210;2023-03-31T01:37:21;3.77;;;1.93;;
6414;SDS011;3240;48.790;9.210;2023-03-31T01:39:55;6.23;;;2.13;;
6414;SDS011;3240;48.790;9.210;2023-03-31T01:42:21;7.90;;;1.90;;
6414;SDS011;3240;48.790;9.210;2023-03-31T01:44:54;9.53;;;2.20;;
6414;SDS011;3240;48.790;9.210;2023-03-31T01:47:18;5.00;;;1.77;;
6414;SDS011;3240;48.790;9.210;2023-03-31T01:49:50;5.17;;;1.80;;
6414;SDS011;3240;48.790;9.210;2023-03-31T01:52:36;7.33;;;1.87;;
6414;SDS011;3240;48.790;9.210;2023-03-31T01:55:02;7.30;;;1.80;;
6414;SDS011;3240;48.790;9.210;2023-03-31T01:57:33;10.33;;;1.63;;
6414;SDS011;3240;48.790;9.210;2023-03-31T02:00:01;8.90;;;2.13;;
6414;SDS011;3240;48.790;9.210;2023-03-31T02:02:30;12.13;;;1.83;;
6414;SDS011;3240;48.790;9.210;2023-03-31T02:04:58;5.93;;;1.90;;
6414;SDS011;3240;48.790;9.210;2023-03-31T02:07:27;8.77;;;2.57;;
6414;SDS011;3240;48.790;9.210;2023-03-31T02:09:55;5.57;;;1.70;;
6414;SDS011;3240;48.790;9.210;2023-03-31T02:12:23;9.20;;;2.00;;
6414;SDS011;3240;48.790;9.210;2023-03-31T02:14:51;3.80;;;1.70;;
6414;SDS011;3240;48.790;9.210;2023-03-31T02:17:21;5.53;;;1.57;;
6414;SDS011;3240;48.790;9.210;2023-03-31T02:19:49;6.47;;;2.07;;
6414;SDS011;3240;48.790;9.210;2023-03-31T02:22:16;5.47;;;1.90;;
6414;SDS011;3240;48.790;9.210;2023-03-31T02:24:45;4.47;;;1.40;;
6414;SDS011;3240;48.790;9.210;2023-03-31T02:27:20;5.13;;;2.27;;
6414;SDS011;3240;48.790;9.210;2023-03-31T02:29:46;5.80;;;1.93;;
6414;SDS011;3240;48.790;9.210;2023-03-31T02:32:20;11.73;;;2.20;;
6414;SDS011;3240;48.790;9.210;2023-03-31T02:34:45;10.13;;;2.00;;
6414;SDS011;3240;48.790;9.210;2023-03-31T02:37:14;6.97;;;1.97;;
6414;SDS011;3240;48.790;9.210;2023-03-31T02:39:43;7.60;;;1.93;;
6414;SDS011;3240;48.790;9.210;2023-03-31T02:42:10;4.83;;;1.90;;
6414;SDS011;3240;48.790;9.210;2023-03-31T02:44:39;5.47;;;2.23;;
6414;SDS011;3240;48.790;9.210;2023-03-31T02:47:08;11.00;;;2.60;;
6414;SDS011;3240;48.790;9.210;2023-03-31T02:49:36;5.30;;;1.70;;
6414;SDS011;3240;48.790;9.210;2023-03-31T02:52:20;4.40;;;2.00;;
6414;SDS011;3240;48.790;9.210;2023-03-31T02:57:37;7.77;;;1.90;;
6414;SDS011;3240;48.790;9.210;2023-03-31T03:00:07;7.97;;;2.00;;
6414;SDS011;3240;48.790;9.210;2023-03-31T03:02:39;8.13;;;2.70;;
6414;SDS011;3240;48.790;9.210;2023-03-31T03:05:15;3.63;;;2.00;;
6414;SDS011;3240;48.790;9.210;2023-03-31T03:08:04;6.97;;;1.97;;
6414;SDS011;3240;48.790;9.210;2023-03-31T03:15:39;7.27;;;3.10;;
6414;SDS011;3240;48.790;9.210;2023-03-31T03:18:04;4.97;;;2.20;;
6414;SDS011;3240;48.790;9.210;2023-03-31T03:20:33;9.33;;;2.27;;
6414;SDS011;3240;48.790;9.210;2023-03-31T03:23:01;4.70;;;2.10;;
6414;SDS011;3240;48.790;9.210;2023-03-31T03:25:29;7.53;;;2.00;;
6414;SDS011;3240;48.790;9.210;2023-03-31T03:27:58;4.77;;;2.50;;
6414;SDS011;3240;48.790;9.210;2023-03-31T03:30:26;9.00;;;2.43;;
6414;SDS011;3240;48.790;9.210;2023-03-31T03:32:54;5.27;;;2.20;;
6414;SDS011;3240;48.790;9.210;2023-03-31T03:35:23;4.93;;;1.90;;
6414;SDS011;3240;48.790;9.210;2023-03-31T03:37:51;5.50;;;1.93;;
6414;SDS011;3240;48.790;9.210;2023-03-31T03:40:19;6.00;;;2.00;;
6414;SDS011;3240;48.790;9.210;2023-03-31T03:42:48;3.70;;;2.33;;
6414;SDS011;3240;48.790;9.210;2023-03-31T03:45:16;4.10;;;2.50;;
6414;SDS011;3240;48.790;9.210;2023-03-31T03:47:44;4.30;;;1.90;;
6414;SDS011;3240;48.790;9.210;2023-03-31T03:50:13;3.93;;;2.20;;
6414;SDS011;3240;48.790;9.210;2023-03-31T03:52:41;4.50;;;2.93;;
6414;SDS011;3240;48.790;9.210;2023-03-31T03:55:09;9.47;;;2.53;;
6414;SDS011;3240;48.790;9.210;2023-03-31T03:57:38;7.20;;;2.40;;
6414;SDS011;3240;48.790;9.210;2023-03-31T04:00:07;7.53;;;2.57;;
6414;SDS011;3240;48.790;9.210;2023-03-31T04:02:35;6.40;;;2.23;;
6414;SDS011;3240;48.790;9.210;2023-03-31T04:05:03;6.30;;;2.27;;
6414;SDS011;3240;48.790;9.210;2023-03-31T04:07:32;4.37;;;2.73;;
6414;SDS011;3240;48.790;9.210;2023-03-31T04:10:00;3.57;;;2.33;;
6414;SDS011;3240;48.790;9.210;2023-03-31T04:12:28;4.60;;;2.00;;
6414;SDS011;3240;48.790;9.210;2023-03-31T04:14:57;8.93;;;2.40;;
6414;SDS011;3240;48.790;9.210;2023-03-31T04:17:25;10.03;;;3.00;;
6414;SDS011;3240;48.790;9.210;2023-03-31T04:20:02;5.50;;;2.87;;
6414;SDS011;3240;48.790;9.210;2023-03-31T04:22:29;6.40;;;2.70;;
6414;SDS011;3240;48.790;9.210;2023-03-31T04:24:57;4.90;;;2.63;;
6414;SDS011;3240;48.790;9.210;2023-03-31T04:27:26;7.00;;;4.20;;
6414;SDS011;3240;48.790;9.210;2023-03-31T04:29:54;5.63;;;3.00;;
6414;SDS011;3240;48.790;9.210;2023-03-31T04:32:22;10.17;;;2.90;;
6414;SDS011;3240;48.790;9.210;2023-03-31T04:34:51;7.00;;;2.77;;
6414;SDS011;3240;48.790;9.210;2023-03-31T04:37:19;11.40;;;3.40;;
6414;SDS011;3240;48.790;9.210;2023-03-31T04:39:47;7.47;;;2.97;;
6414;SDS011;3240;48.790;9.210;2023-03-31T04:42:16;7.23;;;2.90;;
6414;SDS011;3240;48.790;9.210;2023-03-31T04:44:44;7.03;;;3.00;;
6414;SDS011;3240;48.790;9.210;2023-03-31T04:47:12;7.43;;;3.60;;
6414;SDS011;3240;48.790;9.210;2023-03-31T04:49:41;9.33;;;3.20;;
6414;SDS011;3240;48.790;9.210;2023-03-31T04:52:09;6.17;;;2.87;;
6414;SDS011;3240;48.790;9.210;2023-03-31T04:54:37;7.80;;;3.10;;
6414;SDS011;3240;48.790;9.210;2023-03-31T04:57:06;7.33;;;3.20;;
6414;SDS011;3240;48.790;9.210;2023-03-31T04:59:34;7.90;;;3.07;;
6414;SDS011;3240;48.790;9.210;2023-03-31T05:02:02;5.87;;;3.20;;
6414;SDS011;3240;48.790;9.210;2023-03-31T05:04:31;12.50;;;3.30;;
6414;SDS011;3240;48.790;9.210;2023-03-31T05:06:59;11.43;;;3.87;;
6414;SDS011;3240;48.790;9.210;2023-03-31T05:09:27;11.33;;;4.40;;
6414;SDS011;3240;48.790;9.210;2023-03-31T05:11:56;8.20;;;3.03;;
6414;SDS011;3240;48.790;9.210;2023-03-31T05:14:24;7.97;;;3.40;;
6414;SDS011;3240;48.790;9.210;2023-03-31T05:16:54;11.03;;;3.60;;
6414;SDS011;3240;48.790;9.210;2023-03-31T05:19:21;4.73;;;3.27;;
6414;SDS011;3240;48.790;9.210;2023-03-31T05:21:49;8.37;;;3.53;;
6414;SDS011;3240;48.790;9.210;2023-03-31T05:24:17;6.03;;;3.23;;
6414;SDS011;3240;48.790;9.210;2023-03-31T05:26:46;8.27;;;3.57;;
6414;SDS011;3240;48.790;9.210;2023-03-31T05:29:14;9.17;;;4.00;;
6414;SDS011;3240;48.790;9.210;2023-03-31T05:31:42;7.30;;;3.33;;
6414;SDS011;3240;48.790;9.210;2023-03-31T05:34:11;7.50;;;3.60;;
6414;SDS011;3240;48.790;9.210;2023-03-31T05:36:39;10.47;;;4.17;;
6414;SDS011;3240;48.790;9.210;2023-03-31T05:39:08;10.63;;;4.50;;
6414;SDS011;3240;48.790;9.210;2023-03-31T05:41:36;17.30;;;4.37;;
6414;SDS011;3240;48.790;9.210;2023-03-31T05:44:04;10.80;;;4.50;;
6414;SDS011;3240;48.790;9.210;2023-03-31T05:46:32;9.73;;;4.07;;
6414;SDS011;3240;48.790;9.210;2023-03-31T05:49:01;14.70;;;4.90;;
6414;SDS011;3240;48.790;9.210;2023-03-31T05:51:29;15.90;;;4.27;;
6414;SDS011;3240;48.790;9.210;2023-03-31T05:53:57;8.67;;;4.17;;
6414;SDS011;3240;48.790;9.210;2023-03-31T05:56:26;14.67;;;4.90;;
6414;SDS011;3240;48.790;9.210;2023-03-31T05:58:54;12.70;;;4.50;;
6414;SDS011;3240;48.790;9.210;2023-03-31T06:01:22;9.00;;;4.60;;
6414;SDS011;3240;48.790;9.210;2023-03-31T06:03:51;12.40;;;4.70;;
6414;SDS011;3240;48.790;9.210;2023-03-31T06:06:19;19.60;;;5.70;;
6414;SDS011;3240;48.790;9.210;2023-03-31T06:08:47;12.60;;;5.13;;
6414;SDS011;3240;48.790;9.210;2023-03-31T06:11:17;17.90;;;4.70;;
6414;SDS011;3240;48.790;9.210;2023-03-31T06:13:44;15.20;;;5.30;;
6414;SDS011;3240;48.790;9.210;2023-03-31T06:16:13;14.83;;;5.67;;
6414;SDS011;3240;48.790;9.210;2023-03-31T06:18:41;11.50;;;5.53;;
6414;SDS011;3240;48.790;9.210;2023-03-31T06:21:11;12.20;;;5.33;;
6414;SDS011;3240;48.790;9.210;2023-03-31T06:23:38;12.10;;;5.50;;
6414;SDS011;3240;48.790;9.210;2023-03-31T06:26:07;10.87;;;4.73;;
6414;SDS011;3240;48.790;9.210;2023-03-31T06:28:35;9.50;;;4.60;;
6414;SDS011;3240;48.790;9.210;2023-03-31T06:31:05;8.97;;;4.93;;
6414;SDS011;3240;48.790;9.210;2023-03-31T06:33:32;12.43;;;6.10;;
6414;SDS011;3240;48.790;9.210;2023-03-31T06:36:01;10.47;;;5.07;;
6414;SDS011;3240;48.790;9.210;2023-03-31T06:38:29;11.30;;;6.03;;
6414;SDS011;3240;48.790;9.210;2023-03-31T06:40:57;13.50;;;5.90;;
6414;SDS011;3240;48.790;9.210;2023-03-31T06:43:26;13.30;;;6.87;;
6414;SDS011;3240;48.790;9.210;2023-03-31T06:45:54;10.60;;;4.60;;
6414;SDS011;3240;48.790;9.210;2023-03-31T06:48:22;14.63;;;4.93;;
6414;SDS011;3240;48.790;9.210;2023-03-31T06:50:52;11.33;;;4.57;;
6414;SDS011;3240;48.790;9.210;2023-03-31T06:53:20;12.03;;;5.10;;
6414;SDS011;3240;48.790;9.210;2023-03-31T06:55:48;14.97;;;5.33;;
6414;SDS011;3240;48.790;9.210;2023-03-31T06:58:16;6.80;;;4.57;;
6414;SDS011;3240;48.790;9.210;2023-03-31T07:00:45;16.00;;;5.83;;
6414;SDS011;3240;48.790;9.210;2023-03-31T07:03:14;11.40;;;4.20;;
6414;SDS011;3240;48.790;9.210;2023-03-31T07:05:41;8.90;;;5.67;;
6414;SDS011;3240;48.790;9.210;2023-03-31T07:08:10;11.10;;;5.17;;
6414;SDS011;3240;48.790;9.210;2023-03-31T07:10:38;11.40;;;4.97;;
6414;SDS011;3240;48.790;9.210;2023-03-31T07:13:06;9.87;;;4.93;;
6414;SDS011;3240;48.790;9.210;2023-03-31T07:15:35;5.47;;;4.00;;
6414;SDS011;3240;48.790;9.210;2023-03-31T07:18:03;7.10;;;4.70;;
6414;SDS011;3240;48.790;9.210;2023-03-31T07:20:31;11.10;;;5.00;;
6414;SDS011;3240;48.790;9.210;2023-03-31T07:23:01;8.60;;;4.00;;
6414;SDS011;3240;48.790;9.210;2023-03-31T07:25:28;10.37;;;3.97;;
6414;SDS011;3240;48.790;9.210;2023-03-31T07:27:56;7.13;;;3.30;;
6414;SDS011;3240;48.790;9.210;2023-03-31T07:30:25;11.23;;;3.30;;
6414;SDS011;3240;48.790;9.210;2023-03-31T07:32:53;6.57;;;2.53;;
6414;SDS011;3240;48.790;9.210;2023-03-31T07:35:21;4.20;;;2.20;;
6414;SDS011;3240;48.790;9.210;2023-03-31T07:37:50;7.53;;;2.80;;
6414;SDS011;3240;48.790;9.210;2023-03-31T07:40:19;10.40;;;3.10;;
6414;SDS011;3240;48.790;9.210;2023-03-31T07:42:46;4.33;;;2.70;;
6414;SDS011;3240;48.790;9.210;2023-03-31T07:45:15;6.70;;;2.20;;
6414;SDS011;3240;48.790;9.210;2023-03-31T07:47:43;6.97;;;2.30;;
6414;SDS011;3240;48.790;9.210;2023-03-31T07:50:12;4.55;;;1.95;;
6414;SDS011;3240;48.790;9.210;2023-03-31T07:52:40;6.43;;;2.10;;
6414;SDS011;3240;48.790;9.210;2023-03-31T07:55:08;3.30;;;1.60;;
6414;SDS011;3240;48.790;9.210;2023-03-31T07:57:36;3.63;;;1.80;;
6414;SDS011;3240;48.790;9.210;2023-03-31T08:00:05;2.17;;;1.10;;
6414;SDS011;3240;48.790;9.210;2023-03-31T08:02:34;2.33;;;1.23;;
6414;SDS011;3240;48.790;9.210;2023-03-31T08:05:02;2.30;;;1.03;;
6414;SDS011;3240;48.790;9.210;2023-03-31T08:07:32;3.30;;;1.10;;
6414;SDS011;3240;48.790;9.210;2023-03-31T08:09:59;1.60;;;1.07;;
6414;SDS011;3240;48.790;9.210;2023-03-31T08:12:27;1.93;;;1.20;;
6414;SDS011;3240;48.790;9.210;2023-03-31T08:14:55;2.70;;;1.00;;
6414;SDS011;3240;48.790;9.210;2023-03-31T08:17:24;3.57;;;1.23;;
6414;SDS011;3240;48.790;9.210;2023-03-31T08:19:52;2.23;;;0.80;;
6414;SDS011;3240;48.790;9.210;2023-03-31T08:22:20;3.17;;;1.13;;
6414;SDS011;3240;48.790;9.210;2023-03-31T08:24:49;2.30;;;0.90;;
6414;SDS011;3240;48.790;9.210;2023-03-31T08:27:17;1.23;;;1.00;;
6414;SDS011;3240;48.790;9.210;2023-03-31T08:29:45;1.73;;;1.20;;
6414;SDS011;3240;48.790;9.210;2023-03-31T08:32:14;2.60;;;1.40;;
6414;SDS011;3240;48.790;9.210;2023-03-31T08:34:42;2.50;;;2.20;;
6414;SDS011;3240;48.790;9.210;2023-03-31T08:37:10;1.80;;;0.80;;
6414;SDS011;3240;48.790;9.210;2023-03-31T08:39:39;1.73;;;0.83;;
6414;SDS011;3240;48.790;9.210;2023-03-31T08:42:15;1.80;;;1.20;;
6414;SDS011;3240;48.790;9.210;2023-03-31T08:44:43;3.40;;;1.10;;
6414;SDS011;3240;48.790;9.210;2023-03-31T08:47:12;3.30;;;1.50;;
6414;SDS011;3240;48.790;9.210;2023-03-31T08:49:41;3.23;;;1.30;;
6414;SDS011;3240;48.790;9.210;2023-03-31T08:52:10;4.07;;;1.20;;
6414;SDS011;3240;48.790;9.210;2023-03-31T08:54:39;3.63;;;1.20;;
6414;SDS011;3240;48.790;9.210;2023-03-31T08:57:09;2.50;;;1.23;;
6414;SDS011;3240;48.790;9.210;2023-03-31T08:59:35;3.80;;;1.03;;
6414;SDS011;3240;48.790;9.210;2023-03-31T09:02:04;2.13;;;1.17;;
6414;SDS011;3240;48.790;9.210;2023-03-31T09:07:17;3.17;;;1.20;;
6414;SDS011;3240;48.790;9.210;2023-03-31T09:09:47;3.20;;;1.10;;
6414;SDS011;3240;48.790;9.210;2023-03-31T09:12:15;4.03;;;1.70;;
6414;SDS011;3240;48.790;9.210;2023-03-31T09:14:45;2.53;;;1.40;;
6414;SDS011;3240;48.790;9.210;2023-03-31T09:17:16;4.00;;;1.13;;
6414;SDS011;3240;48.790;9.210;2023-03-31T09:22:17;4.73;;;1.20;;
6414;SDS011;3240;48.790;9.210;2023-03-31T09:24:46;4.47;;;1.27;;
6414;SDS011;3240;48.790;9.210;2023-03-31T09:27:13;4.90;;;1.37;;
6414;SDS011;3240;48.790;9.210;2023-03-31T09:29:46;4.87;;;1.42;;
6414;SDS011;3240;48.790;9.210;2023-03-31T09:32:14;2.50;;;1.07;;
6414;SDS011;3240;48.790;9.210;2023-03-31T09:34:41;3.87;;;1.00;;
6414;SDS011;3240;48.790;9.210;2023-03-31T09:37:10;7.00;;;1.30;;
6414;SDS011;3240;48.790;9.210;2023-03-31T09:39:38;3.10;;;1.20;;
6414;SDS011;3240;48.790;9.210;2023-03-31T09:42:08;6.73;;;1.33;;
6414;SDS011;3240;48.790;9.210;2023-03-31T09:44:36;6.27;;;3.40;;
6414;SDS011;3240;48.790;9.210;2023-03-31T09:47:05;3.90;;;1.20;;
6414;SDS011;3240;48.790;9.210;2023-03-31T09:49:33;4.13;;;1.43;;
6414;SDS011;3240;48.790;9.210;2023-03-31T09:52:03;7.17;;;1.20;;
6414;SDS011;3240;48.790;9.210;2023-03-31T09:54:34;3.87;;;1.30;;
6414;SDS011;3240;48.790;9.210;2023-03-31T09:57:02;5.07;;;1.07;;
6414;SDS011;3240;48.790;9.210;2023-03-31T09:59:31;7.87;;;1.60;;
6414;SDS011;3240;48.790;9.210;2023-03-31T10:01:58;3.67;;;1.10;;
6414;SDS011;3240;48.790;9.210;2023-03-31T10:04:27;5.07;;;1.60;;
6414;SDS011;3240;48.790;9.210;2023-03-31T10:06:54;7.93;;;1.33;;
6414;SDS011;3240;48.790;9.210;2023-03-31T10:09:24;5.93;;;1.20;;
6414;SDS011;3240;48.790;9.210;2023-03-31T10:11:54;7.83;;;1.60;;
6414;SDS011;3240;48.790;9.210;2023-03-31T10:14:25;3.50;;;1.63;;
6414;SDS011;3240;48.790;9.210;2023-03-31T10:16:53;4.53;;;1.33;;
6414;SDS011;3240;48.790;9.210;2023-03-31T10:19:22;3.13;;;1.20;;
6414;SDS011;3240;48.790;9.210;2023-03-31T10:21:56;7.67;;;1.50;;
6414;SDS011;3240;48.790;9.210;2023-03-31T10:24:22;3.90;;;1.80;;
6414;SDS011;3240;48.790;9.210;2023-03-31T10:26:51;4.37;;;1.50;;
6414;SDS011;3240;48.790;9.210;2023-03-31T10:29:21;5.73;;;1.50;;
6414;SDS011;3240;48.790;9.210;2023-03-31T10:31:47;5.03;;;1.40;;
6414;SDS011;3240;48.790;9.210;2023-03-31T10:34:16;2.20;;;1.30;;
6414;SDS011;3240;48.790;9.210;2023-03-31T10:36:46;9.93;;;1.83;;
6414;SDS011;3240;48.790;9.210;2023-03-31T10:39:15;4.60;;;1.60;;
6414;SDS011;3240;48.790;9.210;2023-03-31T10:41:42;3.53;;;1.17;;
6414;SDS011;3240;48.790;9.210;2023-03-31T10:46:46;8.63;;;1.37;;
6414;SDS011;3240;48.790;9.210;2023-03-31T10:49:19;5.07;;;1.30;;
6414;SDS011;3240;48.790;9.210;2023-03-31T10:51:59;5.53;;;1.30;;
6414;SDS011;3240;48.790;9.210;2023-03-31T10:54:26;4.73;;;1.77;;
6414;SDS011;3240;48.790;9.210;2023-03-31T10:56:56;4.33;;;1.30;;
6414;SDS011;3240;48.790;9.210;2023-03-31T10:59:34;6.73;;;1.50;;
6414;SDS011;3240;48.790;9.210;2023-03-31T11:02:05;12.33;;;1.87;;
6414;SDS011;3240;48.790;9.210;2023-03-31T11:04:41;6.40;;;1.60;;
6414;SDS011;3240;48.790;9.210;2023-03-31T11:07:19;8.30;;;1.77;;
6414;SDS011;3240;48.790;9.210;2023-03-31T11:09:47;9.10;;;1.60;;
6414;SDS011;3240;48.790;9.210;2023-03-31T11:12:15;5.77;;;1.30;;
6414;SDS011;3240;48.790;9.210;2023-03-31T11:14:50;5.23;;;1.27;;
6414;SDS011;3240;48.790;9.210;2023-03-31T11:17:21;4.70;;;1.77;;
6414;SDS011;3240;48.790;9.210;2023-03-31T11:19:51;7.03;;;1.70;;
6414;SDS011;3240;48.790;9.210;2023-03-31T11:22:25;3.23;;;1.23;;
6414;SDS011;3240;48.790;9.210;2023-03-31T11:27:33;3.27;;;0.60;;
6414;SDS011;3240;48.790;9.210;2023-03-31T11:32:39;2.33;;;0.93;;
6414;SDS011;3240;48.790;9.210;2023-03-31T11:37:41;1.87;;;1.10;;
6414;SDS011;3240;48.790;9.210;2023-03-31T11:40:26;1.43;;;0.67;;
6414;SDS011;3240;48.790;9.210;2023-03-31T11:42:51;6.83;;;0.97;;
6414;SDS011;3240;48.790;9.210;2023-03-31T11:45:22;2.43;;;0.87;;
6414;SDS011;3240;48.790;9.210;2023-03-31T11:47:50;3.80;;;0.60;;
6414;SDS011;3240;48.790;9.210;2023-03-31T11:50:18;1.37;;;0.50;;
6414;SDS011;3240;48.790;9.210;2023-03-31T11:52:55;1.57;;;0.50;;
6414;SDS011;3240;48.790;9.210;2023-03-31T11:55:21;1.00;;;0.60;;
6414;SDS011;3240;48.790;9.210;2023-03-31T11:57:57;1.40;;;0.77;;
6414;SDS011;3240;48.790;9.210;2023-03-31T12:00:22;4.00;;;0.80;;
6414;SDS011;3240;48.790;9.210;2023-03-31T12:02:52;7.63;;;0.93;;
6414;SDS011;3240;48.790;9.210;2023-03-31T12:05:19;0.80;;;0.50;;
6414;SDS011;3240;48.790;9.210;2023-03-31T12:07:49;2.40;;;0.70;;
6414;SDS011;3240;48.790;9.210;2023-03-31T12:10:18;2.00;;;0.60;;
6414;SDS011;3240;48.790;9.210;2023-03-31T12:12:52;1.23;;;0.67;;
6414;SDS011;3240;48.790;9.210;2023-03-31T12:15:21;1.70;;;0.80;;
6414;SDS011;3240;48.790;9.210;2023-03-31T12:17:58;1.43;;;0.73;;
6414;SDS011;3240;48.790;9.210;2023-03-31T12:20:31;2.97;;;0.60;;
6414;SDS011;3240;48.790;9.210;2023-03-31T12:22:59;1.53;;;0.60;;
6414;SDS011;3240;48.790;9.210;2023-03-31T12:25:29;3.50;;;0.60;;
6414;SDS011;3240;48.790;9.210;2023-03-31T12:27:55;1.23;;;0.50;;
6414;SDS011;3240;48.790;9.210;2023-03-31T12:30:29;1.43;;;0.60;;
6414;SDS011;3240;48.790;9.210;2023-03-31T12:32:58;2.03;;;0.93;;
6414;SDS011;3240;48.790;9.210;2023-03-31T12:38:36;1.97;;;0.77;;
6414;SDS011;3240;48.790;9.210;2023-03-31T12:40:54;2.03;;;0.60;;
6414;SDS011;3240;48.790;9.210;2023-03-31T12:43:21;1.13;;;0.60;;
6414;SDS011;3240;48.790;9.210;2023-03-31T12:46:08;1.53;;;0.60;;
6414;SDS011;3240;48.790;9.210;2023-03-31T12:48:36;1.90;;;0.67;;
6414;SDS011;3240;48.790;9.210;2023-03-31T12:51:06;2.10;;;1.00;;
6414;SDS011;3240;48.790;9.210;2023-03-31T12:53:36;1.80;;;0.57;;
6414;SDS011;3240;48.790;9.210;2023-03-31T12:56:01;1.30;;;0.60;;
6414;SDS011;3240;48.790;9.210;2023-03-31T12:58:37;2.13;;;0.80;;
6414;SDS011;3240;48.790;9.210;2023-03-31T13:01:06;2.00;;;0.80;;
6414;SDS011;3240;48.790;9.210;2023-03-31T13:03:41;1.80;;;0.70;;
6414;SDS011;3240;48.790;9.210;2023-03-31T13:06:09;2.05;;;0.75;;
6414;SDS011;3240;48.790;9.210;2023-03-31T13:11:11;2.40;;;0.80;;
6414;SDS011;3240;48.790;9.210;2023-03-31T13:13:43;2.47;;;1.07;;
6414;SDS011;3240;48.790;9.210;2023-03-31T13:16:08;4.83;;;1.27;;
6414;SDS011;3240;48.790;9.210;2023-03-31T13:18:37;4.30;;;1.50;;
6414;SDS011;3240;48.790;9.210;2023-03-31T13:21:05;4.40;;;1.10;;
6414;SDS011;3240;48.790;9.210;2023-03-31T13:23:34;3.83;;;0.97;;
6414;SDS011;3240;48.790;9.210;2023-03-31T13:26:02;4.07;;;0.70;;
6414;SDS011;3240;48.790;9.210;2023-03-31T13:28:31;3.80;;;0.60;;
6414;SDS011;3240;48.790;9.210;2023-03-31T13:30:59;2.20;;;0.50;;
6414;SDS011;3240;48.790;9.210;2023-03-31T13:33:33;4.10;;;0.63;;
6414;SDS011;3240;48.790;9.210;2023-03-31T13:36:09;2.40;;;0.60;;
6414;SDS011;3240;48.790;9.210;2023-03-31T13:38:52;5.00;;;1.10;;
6414;SDS011;3240;48.790;9.210;2023-03-31T13:41:22;1.07;;;0.50;;
6414;SDS011;3240;48.790;9.210;2023-03-31T13:43:58;0.57;;;0.40;;
6414;SDS011;3240;48.790;9.210;2023-03-31T13:46:37;0.93;;;0.70;;
6414;SDS011;3240;48.790;9.210;2023-03-31T13:49:08;0.97;;;0.50;;
6414;SDS011;3240;48.790;9.210;2023-03-31T13:51:34;1.00;;;0.50;;
6414;SDS011;3240;48.790;9.210;2023-03-31T13:54:11;0.90;;;0.43;;
6414;SDS011;3240;48.790;9.210;2023-03-31T14:02:03;1.60;;;0.37;;
6414;SDS011;3240;48.790;9.210;2023-03-31T14:04:37;1.17;;;0.40;;
6414;SDS011;3240;48.790;9.210;2023-03-31T14:07:07;3.20;;;0.90;;
6414;SDS011;3240;48.790;9.210;2023-03-31T14:09:34;1.30;;;0.50;;
6414;SDS011;3240;48.790;9.210;2023-03-31T14:12:17;1.27;;;0.30;;
6414;SDS011;3240;48.790;9.210;2023-03-31T14:14:30;0.83;;;0.50;;
6414;SDS011;3240;48.790;9.210;2023-03-31T14:17:01;2.10;;;0.70;;
6414;SDS011;3240;48.790;9.210;2023-03-31T14:19:37;2.00;;;0.60;;
6414;SDS011;3240;48.790;9.210;2023-03-31T14:24:38;0.60;;;0.40;;
6414;SDS011;3240;48.790;9.210;2023-03-31T14:29:43;0.83;;;0.43;;
6414;SDS011;3240;48.790;9.210;2023-03-31T14:32:21;0.90;;;0.50;;
6414;SDS011;3240;48.790;9.210;2023-03-31T14:34:52;1.80;;;0.50;;
6414;SDS011;3240;48.790;9.210;2023-03-31T14:37:18;1.60;;;0.70;;
6414;SDS011;3240;48.790;9.210;2023-03-31T14:39:47;1.00;;;0.50;;
6414;SDS011;3240;48.790;9.210;2023-03-31T14:42:16;1.67;;;0.80;;
6414;SDS011;3240;48.790;9.210;2023-03-31T14:44:43;1.20;;;0.60;;
6414;SDS011;3240;48.790;9.210;2023-03-31T14:47:14;1.00;;;0.60;;
6414;SDS011;3240;48.790;9.210;2023-03-31T14:49:42;1.17;;;0.50;;
6414;SDS011;3240;48.790;9.210;2023-03-31T14:52:12;2.07;;;0.97;;
6414;SDS011;3240;48.790;9.210;2023-03-31T14:54:39;2.10;;;0.50;;
6414;SDS011;3240;48.790;9.210;2023-03-31T14:57:08;4.30;;;0.80;;
6414;SDS011;3240;48.790;9.210;2023-03-31T14:59:36;0.87;;;0.50;;
6414;SDS011;3240;48.790;9.210;2023-03-31T15:02:04;1.10;;;0.50;;
6414;SDS011;3240;48.790;9.210;2023-03-31T15:04:35;1.30;;;0.57;;
6414;SDS011;3240;48.790;9.210;2023-03-31T15:07:01;0.90;;;0.50;;
6414;SDS011;3240;48.790;9.210;2023-03-31T15:09:29;1.90;;;0.60;;
6414;SDS011;3240;48.790;9.210;2023-03-31T15:11:59;2.00;;;0.90;;
6414;SDS011;3240;48.790;9.210;2023-03-31T15:14:30;2.23;;;0.97;;
6414;SDS011;3240;48.790;9.210;2023-03-31T15:16:58;0.93;;;0.60;;
6414;SDS011;3240;48.790;9.210;2023-03-31T15:19:27;1.63;;;0.80;;
6414;SDS011;3240;48.790;9.210;2023-03-31T15:21:57;4.00;;;0.73;;
6414;SDS011;3240;48.790;9.210;2023-03-31T15:24:24;2.07;;;0.70;;
6414;SDS011;3240;48.790;9.210;2023-03-31T15:26:57;1.87;;;0.60;;
6414;SDS011;3240;48.790;9.210;2023-03-31T15:29:25;3.23;;;0.70;;
6414;SDS011;3240;48.790;9.210;2023-03-31T15:31:54;1.37;;;0.80;;
6414;SDS011;3240;48.790;9.210;2023-03-31T15:34:25;1.40;;;0.70;;
6414;SDS011;3240;48.790;9.210;2023-03-31T15:36:53;2.53;;;0.87;;
6414;SDS011;3240;48.790;9.210;2023-03-31T15:39:22;3.87;;;0.77;;
6414;SDS011;3240;48.790;9.210;2023-03-31T15:41:49;4.90;;;1.70;;
6414;SDS011;3240;48.790;9.210;2023-03-31T15:44:34;1.83;;;0.50;;
6414;SDS011;3240;48.790;9.210;2023-03-31T15:47:00;3.03;;;0.70;;
6414;SDS011;3240;48.790;9.210;2023-03-31T15:49:28;3.70;;;0.70;;
6414;SDS011;3240;48.790;9.210;2023-03-31T15:51:56;2.55;;;0.80;;
6414;SDS011;3240;48.790;9.210;2023-03-31T15:54:32;1.27;;;0.50;;
6414;SDS011;3240;48.790;9.210;2023-03-31T15:56:59;2.00;;;0.67;;
6414;SDS011;3240;48.790;9.210;2023-03-31T15:59:27;0.90;;;0.60;;
6414;SDS011;3240;48.790;9.210;2023-03-31T16:01:55;2.93;;;0.90;;
6414;SDS011;3240;48.790;9.210;2023-03-31T16:04:23;1.00;;;0.50;;
6414;SDS011;3240;48.790;9.210;2023-03-31T16:07:13;1.43;;;0.83;;
6414;SDS011;3240;48.790;9.210;2023-03-31T16:09:41;3.10;;;0.70;;
6414;SDS011;3240;48.790;9.210;2023-03-31T16:12:17;1.23;;;0.63;;